Time;durP1;ratioP1;P1;durP2;ratioP2;P2;SDS_P1;SDS_P2;PMS_P1;PMS_P2;Temp;Humidity;BMP_temperature;BMP_pressure;BME280_temperature;BME280_humidity;BME280_pressure;Samples;Min_cycle;Max_cycle;Signal;HPM_P1;HPM_P2
2023/01/24 00:00:32;;;;;;;16.98;8.70;;;4.70;99.90;;;;;;5015352;28;20021;-45
2023/01/24 00:02:57;;;;;;;14.65;7.85;;;4.80;99.90;;;;;;5032201;28;20032;-42
2023/01/24 00:05:23;;;;;;;16.55;7.53;;;4.80;99.90;;;;;;5017305;28;20088;-42
2023/01/24 00:07:49;;;;;;;15.80;8.18;;;4.80;99.90;;;;;;5012975;28;20491;-40
2023/01/24 00:10:15;;;;;;;22.58;7.13;;;4.80;99.90;;;;;;5012824;28;20033;-43
2023/01/24 00:12:40;;;;;;;11.68;7.05;;;4.80;99.90;;;;;;5012553;28;20034;-38
2023/01/24 00:15:06;;;;;;;18.27;7.55;;;4.70;99.90;;;;;;5014934;28;20026;-39
2023/01/24 00:17:32;;;;;;;17.60;8.35;;;4.70;99.90;;;;;;5013414;28;20382;-39
2023/01/24 00:19:58;;;;;;;20.42;8.50;;;4.70;99.90;;;;;;5012867;28;20033;-40
2023/01/24 00:22:23;;;;;;;16.70;8.35;;;4.80;99.90;;;;;;5012675;28;20032;-41
2023/01/24 00:24:49;;;;;;;15.32;8.15;;;4.80;99.90;;;;;;5012852;28;20478;-52
2023/01/24 00:27:16;;;;;;;13.70;7.65;;;4.80;99.90;;;;;;5012753;28;20026;-39
2023/01/24 00:29:41;;;;;;;16.35;8.27;;;4.80;99.90;;;;;;5012638;28;20066;-37
2023/01/24 00:32:07;;;;;;;16.17;8.30;;;4.70;99.90;;;;;;5012229;28;20208;-37
2023/01/24 00:34:33;;;;;;;16.13;7.95;;;4.70;99.90;;;;;;5012387;28;20026;-38
2023/01/24 00:36:59;;;;;;;14.25;7.95;;;4.70;99.90;;;;;;5012471;28;20049;-39
2023/01/24 00:39:25;;;;;;;13.80;7.80;;;4.70;99.90;;;;;;5012416;28;20022;-34
2023/01/24 00:41:51;;;;;;;17.20;8.20;;;4.80;99.90;;;;;;5011959;28;20017;-35
2023/01/24 00:44:16;;;;;;;13.77;7.75;;;4.80;99.90;;;;;;5018935;28;20121;-29
2023/01/24 00:46:42;;;;;;;14.02;8.07;;;4.70;99.90;;;;;;5019502;28;20032;-32
2023/01/24 00:49:08;;;;;;;15.82;8.30;;;4.80;99.90;;;;;;5018387;28;20087;-40
2023/01/24 00:51:34;;;;;;;17.88;8.50;;;4.80;99.90;;;;;;5016522;28;20087;-34
2023/01/24 00:53:59;;;;;;;16.70;9.30;;;4.80;99.90;;;;;;5018180;28;20043;-36
2023/01/24 00:56:26;;;;;;;15.63;8.00;;;4.70;99.90;;;;;;5022029;28;20481;-36
2023/01/24 00:58:51;;;;;;;14.00;8.05;;;4.80;99.90;;;;;;5014899;28;20482;-33
2023/01/24 01:01:17;;;;;;;13.05;7.40;;;4.80;99.90;;;;;;5021602;28;20060;-34
2023/01/24 01:03:42;;;;;;;15.13;7.80;;;4.80;99.90;;;;;;5020610;28;20474;-32
2023/01/24 01:06:13;;;;;;;13.52;7.28;;;4.80;99.90;;;;;;5038099;28;20029;-34
2023/01/24 01:08:39;;;;;;;15.05;7.07;;;4.70;99.90;;;;;;5035012;28;20489;-37
2023/01/24 01:11:05;;;;;;;15.70;7.90;;;4.70;99.90;;;;;;5027585;28;20033;-34
2023/01/24 01:13:31;;;;;;;15.75;7.47;;;4.70;99.90;;;;;;5018937;28;20029;-34
2023/01/24 01:16:16;;;;;;;13.70;7.07;;;4.70;99.90;;;;;;5027220;28;20402;-34
2023/01/24 01:18:42;;;;;;;14.57;7.18;;;4.70;99.90;;;;;;5025508;28;20029;-34
2023/01/24 01:21:11;;;;;;;16.45;7.88;;;4.70;99.90;;;;;;5027532;28;20367;-36
2023/01/24 01:23:37;;;;;;;17.52;8.38;;;4.70;99.90;;;;;;5034831;28;20279;-32
2023/01/24 01:26:06;;;;;;;13.90;7.65;;;4.70;99.90;;;;;;5034796;28;20489;-33
2023/01/24 01:28:32;;;;;;;15.85;8.57;;;4.70;99.90;;;;;;5027759;28;20038;-35
2023/01/24 01:30:58;;;;;;;16.30;7.95;;;4.70;99.90;;;;;;5021385;28;20037;-34
2023/01/24 01:33:24;;;;;;;16.05;8.70;;;4.70;99.90;;;;;;5025488;28;20142;-31
2023/01/24 01:35:51;;;;;;;20.35;9.95;;;4.60;99.90;;;;;;5021007;28;20076;-31
2023/01/24 01:38:17;;;;;;;14.15;7.80;;;4.70;99.90;;;;;;5021515;28;20033;-34
2023/01/24 01:40:43;;;;;;;16.92;8.55;;;4.70;99.90;;;;;;5026931;28;20058;-38
2023/01/24 01:43:17;;;;;;;17.33;8.25;;;4.60;99.90;;;;;;5033291;28;20087;-33
2023/01/24 01:45:48;;;;;;;21.90;9.95;;;4.60;99.90;;;;;;5016561;28;20164;-34
2023/01/24 01:48:23;;;;;;;16.10;9.35;;;4.60;99.90;;;;;;5031731;28;20116;-33
2023/01/24 01:51:30;;;;;;;20.63;9.77;;;4.60;99.90;;;;;;5022870;28;20389;-33
2023/01/24 01:54:08;;;;;;;17.05;8.25;;;4.60;99.90;;;;;;5030169;28;20478;-33
2023/01/24 01:56:36;;;;;;;17.52;8.82;;;4.50;99.90;;;;;;5032415;28;20045;-32
2023/01/24 01:59:06;;;;;;;18.52;10.00;;;4.50;99.90;;;;;;5024483;28;20034;-31
2023/01/24 02:01:33;;;;;;;18.83;9.23;;;4.50;99.90;;;;;;5025397;28;20029;-36
2023/01/24 02:04:26;;;;;;;22.35;8.93;;;4.60;99.90;;;;;;5034219;28;20033;-41
2023/01/24 02:07:00;;;;;;;16.17;8.57;;;4.60;99.90;;;;;;5033238;28;20064;-32
2023/01/24 02:09:34;;;;;;;16.27;8.55;;;4.60;99.90;;;;;;5034514;28;20109;-35
2023/01/24 02:12:03;;;;;;;15.23;8.73;;;4.60;99.90;;;;;;5033835;28;20043;-32
2023/01/24 02:17:22;;;;;;;18.75;9.57;;;4.60;99.90;;;;;;5040588;28;20094;-35
2023/01/24 02:20:16;;;;;;;18.13;9.63;;;4.60;99.90;;;;;;5042104;28;20025;-33
2023/01/24 02:23:07;;;;;;;22.25;10.07;;;4.60;99.90;;;;;;5024639;28;20040;-35
2023/01/24 02:25:52;;;;;;;18.95;9.52;;;4.60;99.90;;;;;;5026619;28;20024;-35
2023/01/24 02:28:18;;;;;;;18.38;8.95;;;4.50;99.90;;;;;;5014822;28;20040;-31
2023/01/24 02:30:43;;;;;;;19.67;9.13;;;4.50;99.90;;;;;;5040340;28;20029;-33
2023/01/24 02:33:18;;;;;;;17.77;8.63;;;4.40;99.90;;;;;;5033395;28;20099;-37
2023/01/24 02:35:45;;;;;;;19.88;9.93;;;4.50;99.90;;;;;;5018660;28;20029;-33
2023/01/24 02:38:26;;;;;;;20.65;9.00;;;4.40;99.90;;;;;;5049211;28;20017;-39
2023/01/24 02:40:56;;;;;;;17.92;8.85;;;4.50;99.90;;;;;;5057015;28;20040;-36
2023/01/24 02:43:26;;;;;;;17.48;8.40;;;4.50;99.90;;;;;;5030825;28;20428;-34
2023/01/24 02:45:52;;;;;;;15.63;8.43;;;4.50;99.90;;;;;;5043424;28;20389;-37
2023/01/24 02:48:17;;;;;;;16.58;8.23;;;4.50;99.90;;;;;;5015448;28;20030;-31
2023/01/24 02:53:29;;;;;;;14.60;8.00;;;4.40;99.90;;;;;;5023376;28;20095;-34
2023/01/24 02:58:39;;;;;;;18.23;8.95;;;4.40;99.90;;;;;;5032092;28;20053;-33
2023/01/24 03:01:05;;;;;;;17.63;8.48;;;4.40;99.90;;;;;;5036875;28;20026;-34
2023/01/24 03:03:30;;;;;;;15.88;8.15;;;4.30;99.90;;;;;;5028808;28;20077;-34
2023/01/24 03:05:56;;;;;;;13.10;8.25;;;4.30;99.90;;;;;;5041473;28;20029;-40
2023/01/24 03:08:27;;;;;;;13.88;7.20;;;4.30;99.90;;;;;;5030390;28;20045;-41
2023/01/24 03:10:54;;;;;;;13.60;6.95;;;4.30;99.90;;;;;;5032120;28;20030;-41
2023/01/24 03:35:15;;;;;;;18.38;9.13;;;4.40;99.90;;;;;;5013676;28;20116;-42
2023/01/24 03:40:25;;;;;;;15.52;7.20;;;4.40;99.90;;;;;;5032264;28;20124;-34
2023/01/24 03:42:51;;;;;;;15.75;7.57;;;4.40;99.90;;;;;;5032997;28;20064;-34
2023/01/24 03:45:19;;;;;;;16.30;7.10;;;4.30;99.90;;;;;;5041978;28;20021;-31
2023/01/24 03:47:57;;;;;;;17.77;7.80;;;4.40;99.90;;;;;;5035264;28;20030;-34
2023/01/24 03:53:21;;;;;;;;;;;4.40;99.90;;;;;;5033549;28;20035;-32
2023/01/24 03:55:50;;;;;;;14.27;6.80;;;4.50;99.90;;;;;;5032494;28;20007;-34
2023/01/24 03:58:16;;;;;;;14.95;7.50;;;4.50;99.90;;;;;;5030894;28;20021;-36
2023/01/24 04:00:42;;;;;;;12.15;7.03;;;4.50;99.90;;;;;;5042414;28;20131;-35
2023/01/24 04:03:07;;;;;;;14.73;7.78;;;4.50;99.90;;;;;;5019771;28;20057;-37
2023/01/24 04:05:34;;;;;;;17.75;7.82;;;4.30;99.90;;;;;;5032037;28;20100;-35
2023/01/24 04:08:00;;;;;;;15.48;7.78;;;4.30;99.90;;;;;;5030046;28;20025;-42
2023/01/24 04:10:25;;;;;;;16.02;8.30;;;4.30;99.90;;;;;;5022578;28;20101;-42
2023/01/24 04:12:51;;;;;;;13.23;7.40;;;4.30;99.90;;;;;;5011899;28;20049;-42
2023/01/24 04:15:22;;;;;;;16.08;8.15;;;4.30;99.90;;;;;;5033842;28;20033;-41
2023/01/24 04:17:48;;;;;;;17.92;8.05;;;4.30;99.90;;;;;;5046543;28;20033;-40
2023/01/24 04:20:15;;;;;;;14.52;7.97;;;4.30;99.90;;;;;;5023514;28;20908;-42
2023/01/24 04:22:41;;;;;;;14.37;7.47;;;4.30;99.90;;;;;;5016423;28;20164;-42
2023/01/24 04:25:08;;;;;;;18.77;8.57;;;4.30;99.90;;;;;;5032744;28;20534;-33
2023/01/24 04:27:33;;;;;;;18.92;7.30;;;4.30;99.90;;;;;;5030183;28;20033;-33
2023/01/24 04:29:59;;;;;;;17.08;8.40;;;4.40;99.90;;;;;;5021723;28;20044;-33
2023/01/24 04:32:24;;;;;;;16.38;8.15;;;4.40;99.90;;;;;;5049798;28;20032;-35
2023/01/24 04:34:50;;;;;;;13.82;7.00;;;4.30;99.90;;;;;;5013810;28;20057;-32
2023/01/24 04:37:16;;;;;;;17.55;7.75;;;4.30;99.90;;;;;;5014426;28;20057;-34
2023/01/24 04:39:41;;;;;;;14.45;7.10;;;4.30;99.90;;;;;;5029361;28;20032;-34
2023/01/24 04:42:07;;;;;;;13.43;6.80;;;4.30;99.90;;;;;;5036557;28;20444;-34
2023/01/24 04:44:33;;;;;;;15.30;7.35;;;4.30;99.90;;;;;;5032577;28;20029;-39
2023/01/24 04:46:59;;;;;;;12.85;7.55;;;4.30;99.90;;;;;;5041315;28;20385;-35
2023/01/24 04:49:28;;;;;;;13.18;7.13;;;4.20;99.90;;;;;;5032610;28;20478;-33
2023/01/24 04:51:54;;;;;;;15.25;7.32;;;4.20;99.90;;;;;;5036099;28;20482;-33
2023/01/24 04:54:19;;;;;;;15.43;7.72;;;4.20;99.90;;;;;;5018541;28;20079;-34
2023/01/24 04:56:45;;;;;;;14.60;6.78;;;4.20;99.90;;;;;;5036672;28;20046;-37
2023/01/24 04:59:12;;;;;;;15.18;7.93;;;4.20;99.90;;;;;;5038218;28;20060;-40
2023/01/24 05:01:38;;;;;;;14.85;7.00;;;4.10;99.90;;;;;;5046260;28;20033;-34
2023/01/24 05:04:04;;;;;;;18.42;8.35;;;4.10;99.90;;;;;;5037542;28;20029;-33
2023/01/24 05:06:32;;;;;;;12.07;6.82;;;4.10;99.90;;;;;;5035784;28;20104;-32
2023/01/24 05:08:57;;;;;;;12.05;5.28;;;4.10;99.90;;;;;;5034847;28;20045;-32
2023/01/24 05:11:25;;;;;;;14.52;7.20;;;4.00;99.90;;;;;;5035901;28;20482;-36
2023/01/24 05:13:51;;;;;;;16.33;8.13;;;4.00;99.90;;;;;;5025145;28;20025;-37
2023/01/24 05:16:17;;;;;;;12.20;7.03;;;4.00;99.90;;;;;;5047329;28;20492;-33
2023/01/24 05:18:43;;;;;;;14.82;7.45;;;4.00;99.90;;;;;;5035552;28;20033;-45
2023/01/24 05:21:12;;;;;;;16.52;7.70;;;4.00;99.90;;;;;;5022333;28;20087;-35
2023/01/24 05:23:38;;;;;;;15.32;7.90;;;3.90;99.90;;;;;;5034768;28;20033;-35
2023/01/24 05:26:04;;;;;;;17.50;8.10;;;3.90;99.90;;;;;;5034668;28;20025;-35
2023/01/24 05:28:30;;;;;;;19.88;8.30;;;3.90;99.90;;;;;;5032799;28;20482;-34
2023/01/24 05:31:01;;;;;;;18.08;8.25;;;4.00;99.90;;;;;;5034091;28;20524;-32
2023/01/24 05:33:27;;;;;;;16.58;8.32;;;4.10;99.90;;;;;;5027851;28;20371;-37
2023/01/24 05:36:05;;;;;;;16.95;8.23;;;4.10;99.90;;;;;;5022046;28;20038;-37
2023/01/24 05:38:31;;;;;;;16.52;8.45;;;4.10;99.90;;;;;;5019582;28;20024;-35
2023/01/24 05:41:00;;;;;;;16.45;8.15;;;4.00;99.90;;;;;;5035128;28;20072;-34
2023/01/24 05:43:26;;;;;;;14.10;7.85;;;4.00;99.90;;;;;;5033828;28;20037;-42
2023/01/24 05:46:00;;;;;;;17.20;8.35;;;4.00;99.90;;;;;;5032133;28;20025;-33
2023/01/24 05:48:26;;;;;;;18.40;9.05;;;4.00;99.90;;;;;;5020942;28;20101;-34
2023/01/24 05:50:59;;;;;;;16.13;8.60;;;3.90;99.90;;;;;;5035182;28;20057;-35
2023/01/24 05:53:29;;;;;;;18.30;8.43;;;3.90;99.90;;;;;;5034339;28;20030;-31
2023/01/24 05:56:00;;;;;;;18.35;8.75;;;3.80;99.90;;;;;;5032792;28;20048;-37
2023/01/24 05:58:27;;;;;;;18.17;9.02;;;3.90;99.90;;;;;;5034164;28;20064;-40
2023/01/24 06:00:53;;;;;;;19.17;8.65;;;3.90;99.90;;;;;;5034027;28;20040;-41
2023/01/24 06:03:20;;;;;;;23.02;11.00;;;3.90;99.90;;;;;;5032705;28;20097;-42
2023/01/24 06:05:50;;;;;;;17.73;8.80;;;3.90;99.90;;;;;;5019397;28;20040;-41
2023/01/24 06:08:16;;;;;;;16.92;8.77;;;4.00;99.90;;;;;;5034370;28;20465;-41
2023/01/24 06:10:43;;;;;;;24.42;8.60;;;3.90;99.90;;;;;;5034853;28;20032;-42
2023/01/24 06:13:09;;;;;;;20.15;8.98;;;3.80;99.90;;;;;;5033550;28;20083;-43
2023/01/24 06:15:34;;;;;;;18.65;8.77;;;3.80;99.90;;;;;;5030714;28;20474;-35
2023/01/24 06:18:00;;;;;;;21.33;9.20;;;3.80;99.90;;;;;;5030367;28;20048;-58
2023/01/24 06:20:26;;;;;;;18.67;9.40;;;3.80;99.90;;;;;;5031995;28;20109;-44
2023/01/24 06:22:55;;;;;;;17.85;9.20;;;3.70;99.90;;;;;;5024653;28;20033;-41
2023/01/24 06:25:24;;;;;;;21.92;10.25;;;3.70;99.90;;;;;;5019487;28;20037;-43
2023/01/24 06:27:50;;;;;;;17.10;8.68;;;3.70;99.90;;;;;;5023183;28;20065;-42
2023/01/24 06:30:17;;;;;;;21.90;10.38;;;3.70;99.90;;;;;;5023863;28;20509;-40
2023/01/24 06:33:10;;;;;;;22.23;10.77;;;3.70;99.90;;;;;;5023241;28;20048;-41
2023/01/24 06:35:55;;;;;;;20.00;8.98;;;3.70;99.90;;;;;;5028712;28;20029;-38
2023/01/24 06:38:23;;;;;;;20.70;10.13;;;3.60;99.90;;;;;;5024525;28;20477;-42
2023/01/24 06:41:01;;;;;;;20.52;9.77;;;3.60;99.90;;;;;;5023785;28;20052;-42
2023/01/24 06:43:27;;;;;;;18.30;9.07;;;3.60;99.90;;;;;;5030618;28;20433;-44
2023/01/24 06:45:53;;;;;;;27.80;11.18;;;3.60;99.90;;;;;;5029622;28;20026;-42
2023/01/24 06:48:18;;;;;;;26.98;11.65;;;3.70;99.90;;;;;;5029566;28;20486;-44
2023/01/24 06:51:03;;;;;;;21.55;9.82;;;3.70;99.90;;;;;;5032281;28;20026;-43
2023/01/24 06:53:29;;;;;;;26.85;10.98;;;3.70;99.90;;;;;;5028798;28;20538;-42
2023/01/24 06:55:54;;;;;;;27.27;10.05;;;3.70;99.90;;;;;;5027811;28;20124;-43
2023/01/24 06:58:20;;;;;;;24.33;11.40;;;3.80;99.90;;;;;;5031714;28;20428;-42
2023/01/24 07:00:46;;;;;;;24.60;10.50;;;3.70;99.90;;;;;;5038738;28;20082;-41
2023/01/24 07:03:11;;;;;;;20.73;8.73;;;3.80;99.90;;;;;;5026221;28;20135;-41
2023/01/24 07:05:38;;;;;;;22.15;10.55;;;3.80;99.90;;;;;;5026577;28;20493;-40
2023/01/24 07:08:06;;;;;;;23.45;10.82;;;3.90;99.90;;;;;;5029786;28;20454;-40
2023/01/24 07:10:32;;;;;;;21.30;9.80;;;3.90;99.90;;;;;;5031876;28;20026;-31
2023/01/24 07:12:58;;;;;;;22.38;10.18;;;3.80;99.90;;;;;;5031236;28;20545;-36
2023/01/24 07:15:24;;;;;;;18.77;9.55;;;3.70;99.90;;;;;;5037337;28;20025;-34
2023/01/24 07:17:50;;;;;;;23.70;10.68;;;3.70;99.90;;;;;;5029055;28;20048;-34
2023/01/24 07:20:16;;;;;;;17.92;9.65;;;3.70;99.90;;;;;;5038398;28;20063;-39
2023/01/24 07:22:43;;;;;;;23.00;9.75;;;3.70;99.90;;;;;;5031060;28;20033;-36
2023/01/24 07:25:18;;;;;;;25.98;11.13;;;3.60;99.90;;;;;;5029264;28;20517;-31
2023/01/24 07:27:44;;;;;;;22.80;9.63;;;3.60;99.90;;;;;;5024698;28;20041;-38
2023/01/24 07:30:12;;;;;;;26.55;11.15;;;3.60;99.90;;;;;;5026102;28;20065;-35
2023/01/24 07:32:38;;;;;;;21.63;10.43;;;3.70;99.90;;;;;;5032071;28;20099;-42
2023/01/24 07:35:05;;;;;;;21.65;9.50;;;3.60;99.90;;;;;;5029543;28;20416;-43
2023/01/24 07:37:30;;;;;;;26.73;10.48;;;3.60;99.90;;;;;;5032391;28;20060;-42
2023/01/24 07:39:56;;;;;;;27.98;10.00;;;3.60;99.90;;;;;;5046201;28;20025;-45
2023/01/24 07:42:22;;;;;;;24.05;10.15;;;3.60;99.90;;;;;;5029997;28;20045;-44
2023/01/24 07:44:47;;;;;;;28.08;10.85;;;3.70;99.90;;;;;;5037399;28;20513;-41
2023/01/24 07:47:13;;;;;;;25.67;10.38;;;3.70;99.90;;;;;;5027938;28;20044;-46
2023/01/24 07:49:39;;;;;;;24.17;10.73;;;3.70;99.90;;;;;;5031725;28;20536;-41
2023/01/24 07:52:04;;;;;;;22.15;10.20;;;3.70;99.90;;;;;;5032307;28;20025;-42
2023/01/24 07:54:30;;;;;;;25.88;10.48;;;3.60;99.90;;;;;;5032241;28;20037;-44
2023/01/24 07:56:56;;;;;;;22.02;10.27;;;3.50;99.90;;;;;;5030358;28;20025;-38
2023/01/24 07:59:21;;;;;;;21.67;10.25;;;3.50;99.90;;;;;;5024761;28;20022;-42
2023/01/24 08:01:47;;;;;;;22.83;10.65;;;3.50;99.90;;;;;;5028966;28;20556;-41
2023/01/24 08:04:13;;;;;;;28.15;11.82;;;3.50;99.90;;;;;;5032106;28;20030;-42
2023/01/24 08:07:16;;;;;;;22.05;10.35;;;3.50;99.90;;;;;;5020577;28;20465;-36
2023/01/24 08:09:28;;;;;;;27.95;10.15;;;3.40;99.90;;;;;;5023596;28;20064;-40
2023/01/24 08:11:55;;;;;;;21.63;9.20;;;3.50;99.90;;;;;;5033993;28;20389;-41
2023/01/24 08:14:21;;;;;;;22.77;9.75;;;3.60;99.90;;;;;;5033604;28;20076;-42
2023/01/24 08:16:50;;;;;;;21.83;9.68;;;3.60;99.90;;;;;;5044883;28;20033;-41
2023/01/24 08:19:16;;;;;;;19.00;9.45;;;3.50;99.90;;;;;;5035540;28;20021;-44
2023/01/24 08:21:41;;;;;;;23.95;10.48;;;3.50;99.90;;;;;;5023395;28;20030;-39
2023/01/24 08:24:08;;;;;;;26.38;11.55;;;3.50;99.90;;;;;;5025257;28;20168;-36
2023/01/24 08:26:33;;;;;;;19.75;9.55;;;3.50;99.90;;;;;;5026398;28;20025;-42
2023/01/24 08:28:59;;;;;;;22.90;10.15;;;3.50;99.90;;;;;;5029851;28;20034;-41
2023/01/24 08:31:25;;;;;;;21.55;9.93;;;3.60;99.90;;;;;;5029510;28;20420;-42
2023/01/24 08:33:51;;;;;;;22.65;9.63;;;3.60;99.90;;;;;;5022390;28;20021;-36
2023/01/24 08:36:19;;;;;;;23.73;10.43;;;3.60;99.90;;;;;;5022630;28;20054;-33
2023/01/24 08:38:45;;;;;;;24.25;11.35;;;3.60;99.90;;;;;;5018595;28;20073;-34
2023/01/24 08:41:10;;;;;;;23.30;9.98;;;3.60;99.90;;;;;;5020875;28;20520;-37
2023/01/24 08:43:36;;;;;;;22.80;10.88;;;3.60;99.90;;;;;;5018781;28;20482;-38
2023/01/24 08:46:02;;;;;;;30.63;11.23;;;3.60;99.90;;;;;;5016989;28;20505;-38
2023/01/24 08:48:28;;;;;;;21.98;9.48;;;3.60;99.90;;;;;;5017799;28;20061;-34
2023/01/24 08:50:54;;;;;;;26.90;11.32;;;3.60;99.90;;;;;;5022460;28;20017;-38
2023/01/24 08:53:20;;;;;;;21.67;10.68;;;3.60;99.90;;;;;;5024850;28;20047;-31
2023/01/24 08:55:49;;;;;;;22.33;9.90;;;3.60;99.90;;;;;;5020470;28;20042;-31
2023/01/24 08:58:15;;;;;;;27.58;10.73;;;3.50;99.90;;;;;;5020733;28;20026;-32
2023/01/24 09:00:40;;;;;;;21.63;10.05;;;3.60;99.90;;;;;;5012966;28;20105;-35
2023/01/24 09:03:06;;;;;;;22.65;10.18;;;3.70;99.90;;;;;;5016583;28;20123;-35
2023/01/24 09:05:32;;;;;;;22.98;10.82;;;3.70;99.90;;;;;;5020457;28;20068;-53
2023/01/24 09:07:58;;;;;;;22.98;10.13;;;3.70;99.90;;;;;;5020608;28;20119;-40
2023/01/24 09:10:24;;;;;;;22.98;9.70;;;3.60;99.90;;;;;;5023985;28;20555;-37
2023/01/24 09:12:50;;;;;;;18.77;9.55;;;3.60;99.90;;;;;;5021234;28;20030;-33
2023/01/24 09:15:16;;;;;;;25.90;10.63;;;3.70;99.90;;;;;;5020986;28;20463;-32
2023/01/24 09:17:41;;;;;;;23.27;9.57;;;3.70;99.90;;;;;;5017025;28;20024;-35
2023/01/24 09:20:08;;;;;;;20.13;9.63;;;3.70;99.90;;;;;;5018978;28;20029;-35
2023/01/24 09:22:33;;;;;;;23.15;10.57;;;3.70;99.90;;;;;;5018593;28;20516;-38
2023/01/24 09:24:59;;;;;;;23.42;9.75;;;3.60;99.90;;;;;;5031393;28;20029;-37
2023/01/24 09:27:25;;;;;;;22.17;10.55;;;3.50;99.90;;;;;;5015887;28;20556;-33
2023/01/24 09:29:51;;;;;;;23.13;9.63;;;3.50;99.90;;;;;;5016868;28;21336;-32
2023/01/24 09:32:16;;;;;;;20.40;10.57;;;3.50;99.90;;;;;;5019810;28;20378;-37
2023/01/24 09:34:46;;;;;;;24.05;10.43;;;3.60;99.90;;;;;;5023362;28;20025;-38
2023/01/24 09:37:15;;;;;;;19.92;9.35;;;3.60;99.90;;;;;;5019804;28;20022;-38
2023/01/24 09:39:41;;;;;;;20.02;9.82;;;3.50;99.90;;;;;;5024809;28;20025;-44
2023/01/24 09:42:40;;;;;;;22.25;9.93;;;3.50;99.90;;;;;;5017283;28;20413;-43
2023/01/24 09:45:30;;;;;;;28.67;10.65;;;3.40;99.90;;;;;;5015691;28;20037;-40
2023/01/24 09:48:05;;;;;;;20.88;10.27;;;3.50;99.90;;;;;;5017268;28;20546;-39
2023/01/24 09:50:54;;;;;;;25.42;10.07;;;3.60;99.90;;;;;;5025507;28;20029;-40
2023/01/24 09:53:26;;;;;;;19.60;8.95;;;3.50;99.90;;;;;;5016655;28;20552;-36
2023/01/24 09:55:52;;;;;;;22.55;9.98;;;3.50;99.90;;;;;;5018449;28;20046;-33
2023/01/24 09:58:39;;;;;;;21.58;9.05;;;3.60;99.90;;;;;;5018857;28;20496;-37
2023/01/24 10:01:13;;;;;;;22.55;9.95;;;3.60;99.90;;;;;;5015344;28;20064;-33
2023/01/24 10:03:40;;;;;;;19.38;8.57;;;3.70;99.90;;;;;;5015690;28;20360;-31
2023/01/24 10:06:27;;;;;;;25.25;10.38;;;3.70;99.90;;;;;;5020285;28;20026;-32
2023/01/24 10:09:17;;;;;;;20.83;10.30;;;3.60;99.90;;;;;;5036884;28;20053;-37
2023/01/24 10:12:28;;;;;;;21.90;9.50;;;3.60;99.90;;;;;;5023209;28;20034;-35
2023/01/24 10:15:05;;;;;;;19.85;9.25;;;3.60;99.90;;;;;;5020779;28;20501;-33
2023/01/24 10:17:47;;;;;;;15.52;6.90;;;3.60;99.90;;;;;;5028333;28;20171;-32
2023/01/24 10:20:34;;;;;;;21.90;10.98;;;3.40;99.90;;;;;;5025828;28;20025;-36
2023/01/24 10:23:14;;;;;;;19.45;8.93;;;3.50;99.90;;;;;;5026215;28;20022;-35
2023/01/24 10:25:55;;;;;;;20.25;9.68;;;3.50;99.90;;;;;;5025077;28;20041;-34
2023/01/24 10:28:30;;;;;;;20.15;9.10;;;3.60;99.90;;;;;;5017477;28;20501;-33
2023/01/24 10:31:12;;;;;;;15.85;8.52;;;3.70;99.90;;;;;;5031995;28;20108;-31
2023/01/24 10:33:44;;;;;;;33.75;17.48;;;3.80;99.90;;;;;;5028846;28;20482;-34
2023/01/24 10:36:42;;;;;;;21.30;9.80;;;3.90;99.90;;;;;;5028691;28;20021;-31
2023/01/24 10:39:11;;;;;;;16.23;8.40;;;3.90;99.90;;;;;;5028608;28;20041;-38
2023/01/24 10:41:37;;;;;;;17.35;8.15;;;3.80;99.90;;;;;;5031627;28;20489;-34
2023/01/24 10:44:23;;;;;;;15.93;7.10;;;3.90;99.90;;;;;;5025211;28;20105;-34
2023/01/24 10:47:10;;;;;;;20.38;8.82;;;3.80;99.90;;;;;;5032265;28;20076;-32
2023/01/24 10:49:41;;;;;;;20.85;9.85;;;3.80;99.90;;;;;;5032209;28;20033;-34
2023/01/24 10:52:14;;;;;;;20.20;8.45;;;3.80;99.90;;;;;;5016921;28;20026;-31
2023/01/24 10:54:53;;;;;;;27.95;9.52;;;3.90;99.90;;;;;;5021165;28;20108;-31
2023/01/24 10:57:36;;;;;;;20.73;8.90;;;3.80;99.90;;;;;;5015318;28;20053;-33
2023/01/24 11:00:30;;;;;;;18.88;9.77;;;3.80;99.90;;;;;;5013745;28;20041;-35
2023/01/24 11:03:19;;;;;;;22.02;8.68;;;3.70;99.90;;;;;;5013762;28;20395;-36
2023/01/24 11:05:50;;;;;;;18.40;8.60;;;3.80;99.90;;;;;;5029098;28;20075;-35
2023/01/24 11:08:24;;;;;;;22.88;9.05;;;3.80;99.90;;;;;;5030107;28;20029;-34
2023/01/24 11:10:58;;;;;;;21.05;9.30;;;3.80;99.90;;;;;;5018364;28;20100;-33
2023/01/24 11:13:26;;;;;;;21.35;8.75;;;3.90;99.90;;;;;;5013810;28;20505;-35
2023/01/24 11:15:55;;;;;;;23.20;9.70;;;3.90;99.90;;;;;;5013793;28;20504;-36
2023/01/24 11:18:27;;;;;;;19.60;9.10;;;4.00;99.90;;;;;;5013080;28;20109;-36
2023/01/24 11:21:11;;;;;;;22.25;10.05;;;4.00;99.90;;;;;;5063529;28;20029;-38
2023/01/24 11:23:37;;;;;;;20.33;8.90;;;4.00;99.90;;;;;;5033611;28;20029;-34
2023/01/24 11:26:05;;;;;;;24.38;10.25;;;4.10;99.90;;;;;;5024104;28;20520;-37
2023/01/24 11:28:36;;;;;;;25.38;8.75;;;4.00;99.90;;;;;;5018893;28;20026;-38
2023/01/24 11:31:15;;;;;;;21.50;9.55;;;3.80;99.90;;;;;;5013190;28;20044;-34
2023/01/24 11:34:07;;;;;;;21.13;8.63;;;3.80;99.90;;;;;;5013059;28;20506;-36
2023/01/24 11:37:01;;;;;;;19.60;8.85;;;3.80;99.90;;;;;;5013737;28;20104;-34
2023/01/24 11:39:29;;;;;;;20.08;9.35;;;4.00;99.90;;;;;;5012342;28;20478;-37
2023/01/24 11:42:07;;;;;;;24.73;10.07;;;4.00;99.90;;;;;;5015773;28;20477;-36
2023/01/24 11:44:38;;;;;;;;;;;4.20;99.90;;;;;;5013659;28;20117;-34
2023/01/24 11:47:15;;;;;;;24.45;8.70;;;4.30;99.90;;;;;;5029485;28;19909;-35
2023/01/24 11:50:17;;;;;;;19.05;8.05;;;4.30;99.90;;;;;;5024828;28;20393;-37
2023/01/24 11:53:20;;;;;;;23.08;9.38;;;4.30;99.90;;;;;;5019418;28;20367;-35
2023/01/24 11:56:04;;;;;;;19.27;8.63;;;4.30;99.90;;;;;;5026090;28;20058;-37
2023/01/24 11:59:05;;;;;;;20.17;8.77;;;4.20;99.90;;;;;;5022835;28;20107;-33
2023/01/24 12:02:01;;;;;;;18.65;7.68;;;4.10;99.90;;;;;;5023007;28;20029;-34
2023/01/24 12:04:45;;;;;;;16.05;8.13;;;4.00;99.90;;;;;;5023369;28;20140;-36
2023/01/24 12:07:36;;;;;;;19.92;7.93;;;3.90;99.90;;;;;;5019185;28;20056;-31
2023/01/24 12:10:20;;;;;;;18.27;8.73;;;3.90;99.90;;;;;;5014827;28;20543;-38
2023/01/24 12:13:13;;;;;;;14.95;7.50;;;3.90;99.90;;;;;;5023794;28;20104;-38
2023/01/24 12:15:57;;;;;;;16.70;8.13;;;3.90;99.90;;;;;;5011994;28;20037;-37
2023/01/24 12:18:26;;;;;;;17.73;7.20;;;4.00;99.90;;;;;;5018084;28;20076;-34
2023/01/24 12:21:08;;;;;;;18.77;9.02;;;4.10;99.90;;;;;;5014570;28;20079;-39
2023/01/24 12:24:13;;;;;;;18.35;8.13;;;4.10;99.90;;;;;;5017998;28;20091;-31
2023/01/24 12:26:43;;;;;;;15.90;7.93;;;4.10;99.90;;;;;;5014374;28;20040;-31
2023/01/24 12:29:30;;;;;;;17.00;7.47;;;4.10;99.90;;;;;;5017317;28;20062;-34
2023/01/24 12:32:14;;;;;;;16.65;8.35;;;4.20;99.90;;;;;;5025109;28;20029;-33
2023/01/24 12:34:45;;;;;;;16.33;7.32;;;4.20;99.90;;;;;;5016452;28;20029;-32
2023/01/24 12:37:21;;;;;;;17.75;7.68;;;4.20;99.90;;;;;;5023299;28;20553;-36
2023/01/24 12:39:58;;;;;;;14.57;7.70;;;4.20;99.90;;;;;;5016493;28;20037;-32
2023/01/24 12:42:37;;;;;;;15.38;7.47;;;4.20;99.90;;;;;;5023887;28;20466;-36
2023/01/24 12:45:11;;;;;;;17.45;8.25;;;4.10;99.90;;;;;;5014276;28;20478;-34
2023/01/24 12:47:46;;;;;;;13.18;6.63;;;4.20;99.90;;;;;;5017131;28;20516;-36
2023/01/24 12:50:21;;;;;;;18.73;8.50;;;4.20;99.90;;;;;;5021965;28;20037;-32
2023/01/24 12:53:01;;;;;;;12.77;6.95;;;4.20;99.90;;;;;;5017545;28;20041;-34
2023/01/24 12:55:59;;;;;;;15.73;7.53;;;4.20;99.90;;;;;;5031968;28;20060;-36
2023/01/24 12:58:31;;;;;;;20.13;7.60;;;4.00;99.90;;;;;;5019865;28;20478;-36
2023/01/24 13:01:30;;;;;;;19.42;7.90;;;4.00;99.90;;;;;;5015412;28;20025;-35
2023/01/24 13:04:23;;;;;;;17.80;7.65;;;4.00;99.90;;;;;;5019740;28;20518;-38
2023/01/24 13:07:19;;;;;;;16.95;7.72;;;4.00;99.90;;;;;;5017433;28;20034;-34
2023/01/24 13:09:54;;;;;;;14.02;7.35;;;4.00;99.90;;;;;;5035349;28;20546;-33
2023/01/24 13:12:23;;;;;;;14.68;7.28;;;4.00;99.90;;;;;;5034651;28;20367;-32
2023/01/24 13:14:55;;;;;;;18.42;8.32;;;4.00;99.90;;;;;;5020099;28;20479;-33
2023/01/24 13:17:50;;;;;;;20.50;7.78;;;3.90;99.90;;;;;;5019006;28;20025;-37
2023/01/24 13:20:24;;;;;;;18.73;7.85;;;4.00;99.90;;;;;;5033227;28;20550;-32
2023/01/24 13:23:08;;;;;;;19.33;7.97;;;4.10;99.90;;;;;;5035482;28;20024;-36
2023/01/24 13:26:08;;;;;;;16.63;7.82;;;3.90;99.90;;;;;;5031472;28;20037;-38
2023/01/24 13:28:33;;;;;;;16.27;8.05;;;4.00;99.90;;;;;;5018617;28;20455;-31
2023/01/24 13:31:02;;;;;;;19.13;7.95;;;4.00;99.90;;;;;;5015562;28;20061;-38
2023/01/24 13:33:40;;;;;;;17.23;8.45;;;4.00;99.90;;;;;;5015335;28;20033;-55
2023/01/24 13:36:07;;;;;;;14.98;7.40;;;4.10;99.90;;;;;;5016703;28;20032;-37
2023/01/24 13:38:41;;;;;;;18.23;7.28;;;4.20;99.90;;;;;;5022686;28;20068;-32
2023/01/24 13:41:15;;;;;;;13.90;7.13;;;4.30;99.90;;;;;;5024137;28;20560;-31
2023/01/24 13:43:46;;;;;;;17.90;8.15;;;4.20;99.90;;;;;;5027078;28;20070;-39